Time;durP1;ratioP1;P1;durP2;ratioP2;P2;SDS_P1;SDS_P2;PMS_P1;PMS_P2;Temp;Humidity;BMP_temperature;BMP_pressure;BME280_temperature;BME280_humidity;BME280_pressure;Samples;Min_cycle;Max_cycle;Signal;HPM_P1;HPM_P2
2023/07/24 00:00:40;;;;;;;;;;;;;;;;;;;;;
2023/07/24 00:21:39;;;;;;;7.80;2.50;;;17.30;99.90;;;;;;4789198;29;20110;-56
2023/07/24 00:24:35;;;;;;;6.93;2.95;;;17.30;99.90;;;;;;4788793;29;20031;-59
2023/07/24 00:27:28;;;;;;;8.00;2.75;;;17.30;99.90;;;;;;4752921;30;20084;-62
2023/07/24 00:30:21;;;;;;;;;;;17.30;99.90;;;;;;4753968;30;20063;-63
2023/07/24 00:34:07;;;;;;;;;;;;;;;;;;;;;
2023/07/24 00:36:41;;;;;;;10.43;2.80;;;17.30;99.90;;;;;;4738915;30;20121;-60
2023/07/24 00:39:51;;;;;;;10.98;3.03;;;17.30;99.90;;;;;;4764443;29;20102;-59
2023/07/24 00:42:19;;;;;;;6.88;2.75;;;17.30;99.90;;;;;;4809926;29;20062;-59
2023/07/24 01:35:03;;;;;;;13.18;3.05;;;16.60;99.90;;;;;;4863373;29;20496;-60
2023/07/24 03:38:00;;;;;;;;;;;;;;;;;;;;;
2023/07/24 03:41:22;;;;;;;9.07;2.70;;;16.40;99.90;;;;;;4859798;29;20374;-58
2023/07/24 03:44:31;;;;;;;;;;;;;;;;;;;;;
2023/07/24 03:50:37;;;;;;;6.20;2.60;;;16.40;99.90;;;;;;4861485;29;20421;-61
2023/07/24 03:53:47;;;;;;;7.82;2.70;;;16.50;99.90;;;;;;4840491;29;20079;-61
2023/07/24 05:08:42;;;;;;;;;;;;;;;;;;;;;
2023/07/24 05:12:02;;;;;;;6.45;2.50;;;16.60;99.90;;;;;;4806643;29;20126;-60
2023/07/24 05:15:21;;;;;;;8.48;3.03;;;16.60;99.90;;;;;;4845168;29;20378;-60
2023/07/24 05:33:03;;;;;;;;;;;;;;;;;;;;;
2023/07/24 05:36:10;;;;;;;6.68;2.42;;;16.50;99.90;;;;;;4775905;29;20204;-63
2023/07/24 05:38:54;;;;;;;7.78;2.92;;;16.60;99.90;;;;;;4797703;29;20055;-61
2023/07/24 06:07:46;;;;;;;6.72;2.20;;;17.50;99.90;;;;;;4807467;29;20097;-56
2023/07/24 06:10:13;;;;;;;6.25;1.98;;;17.70;99.90;;;;;;4847186;29;20060;-56
2023/07/24 06:12:40;;;;;;;7.22;2.10;;;17.70;99.90;;;;;;4862770;29;20037;-57
2023/07/24 06:15:07;;;;;;;3.45;1.77;;;17.80;99.90;;;;;;4846276;29;20105;-55
2023/07/24 06:17:37;;;;;;;5.60;2.40;;;17.90;99.90;;;;;;4846833;29;20102;-56
2023/07/24 06:20:05;;;;;;;5.13;1.80;;;18.00;99.90;;;;;;4863029;29;20505;-56
2023/07/24 06:26:06;;;;;;;5.05;1.60;;;18.10;99.90;;;;;;4861474;29;20053;-58
2023/07/24 06:28:37;;;;;;;5.65;2.17;;;18.10;99.90;;;;;;4861925;29;20456;-58
2023/07/24 06:31:04;;;;;;;4.05;1.90;;;18.10;99.90;;;;;;4862314;29;20065;-58
2023/07/24 06:33:48;;;;;;;6.05;2.30;;;18.10;99.90;;;;;;4857598;29;20058;-59
2023/07/24 06:36:52;;;;;;;5.10;1.83;;;18.10;99.90;;;;;;4864684;29;20060;-60
2023/07/24 06:39:21;;;;;;;8.35;2.30;;;18.20;99.90;;;;;;4879520;29;20037;-59
2023/07/24 06:45:25;;;;;;;5.05;2.08;;;18.20;99.90;;;;;;4867927;29;20045;-54
2023/07/24 06:50:52;;;;;;;;;;;;;;;;;;;;;
2023/07/24 06:56:56;;;;;;;5.50;2.47;;;18.00;99.90;;;;;;4861736;29;20116;-56
2023/07/24 06:59:23;;;;;;;4.65;2.28;;;18.00;99.90;;;;;;4861779;29;20056;-58
2023/07/24 07:01:51;;;;;;;7.00;2.15;;;18.00;99.90;;;;;;4861640;29;20061;-56
2023/07/24 07:04:18;;;;;;;5.38;2.10;;;18.00;99.90;;;;;;4862148;29;20124;-55
2023/07/24 07:06:48;;;;;;;5.47;2.28;;;17.90;99.90;;;;;;4861719;29;20423;-56
2023/07/24 07:16:53;;;;;;;7.00;2.03;;;17.90;99.90;;;;;;4822887;29;20067;-57
2023/07/24 07:19:20;;;;;;;7.47;2.15;;;17.90;99.90;;;;;;4823332;29;20131;-60
2023/07/24 07:21:47;;;;;;;5.10;2.30;;;17.90;99.90;;;;;;4854288;29;20091;-57
2023/07/24 07:24:14;;;;;;;5.97;2.20;;;17.90;99.90;;;;;;4861319;29;20076;-56
2023/07/24 07:26:42;;;;;;;4.40;2.20;;;17.90;99.90;;;;;;4861444;29;20549;-58
2023/07/24 07:29:09;;;;;;;4.28;2.20;;;17.90;99.90;;;;;;4861242;29;20498;-55
2023/07/24 07:31:37;;;;;;;8.57;2.22;;;18.00;99.90;;;;;;4860072;29;20056;-58
2023/07/24 07:34:04;;;;;;;4.78;1.90;;;18.00;99.90;;;;;;4862677;29;20567;-56
2023/07/24 07:36:32;;;;;;;5.45;2.28;;;18.00;99.90;;;;;;4863932;29;20049;-53
2023/07/24 07:39:01;;;;;;;6.03;2.40;;;17.90;99.90;;;;;;4863979;29;20424;-53
2023/07/24 07:41:29;;;;;;;4.82;2.10;;;17.90;99.90;;;;;;4864940;29;20045;-56
2023/07/24 07:43:56;;;;;;;4.68;2.20;;;17.90;99.90;;;;;;4865321;29;20045;-61
2023/07/24 07:49:55;;;;;;;7.90;2.30;;;18.00;99.90;;;;;;4863268;29;20034;-58
2023/07/24 07:52:25;;;;;;;4.90;2.40;;;18.10;99.90;;;;;;4864907;29;20105;-61
2023/07/24 07:54:55;;;;;;;4.90;2.40;;;18.20;99.90;;;;;;4865076;29;20119;-57
2023/07/24 07:57:37;;;;;;;5.25;2.40;;;18.20;99.90;;;;;;4864955;29;20405;-59
2023/07/24 08:00:11;;;;;;;4.63;2.20;;;18.50;99.90;;;;;;4864288;29;20046;-59
2023/07/24 08:03:20;;;;;;;6.40;2.53;;;18.50;99.90;;;;;;4855448;29;20045;-62
2023/07/24 08:10:07;;;;;;;5.32;2.70;;;18.80;99.90;;;;;;4824781;29;20042;-60
2023/07/24 08:40:47;;;;;;;6.05;3.00;;;19.20;99.90;;;;;;4825303;29;20030;-58
2023/07/24 09:12:54;;;;;;;;;;;;;;;;;;;;;
2023/07/24 09:22:40;;;;;;;2.70;1.20;;;18.50;99.90;;;;;;4783603;29;20086;-57
2023/07/24 09:58:16;;;;;;;2.00;1.23;;;17.00;99.90;;;;;;4732685;30;20191;-60
2023/07/24 10:01:01;;;;;;;4.28;1.33;;;16.80;99.90;;;;;;4732390;30;20560;-59
2023/07/24 10:03:32;;;;;;;2.72;1.08;;;16.80;99.90;;;;;;4733631;30;20060;-62
2023/07/24 10:06:00;;;;;;;2.58;1.20;;;16.80;99.90;;;;;;4733213;30;20061;-56
2023/07/24 10:08:27;;;;;;;3.00;1.25;;;16.80;99.90;;;;;;4728019;30;20064;-59
2023/07/24 10:10:55;;;;;;;2.03;1.08;;;16.80;99.90;;;;;;4733289;30;20446;-54
2023/07/24 10:13:25;;;;;;;2.63;1.23;;;16.70;99.90;;;;;;4729252;30;20074;-55
2023/07/24 10:15:56;;;;;;;3.60;0.95;;;16.60;99.90;;;;;;4733501;30;20053;-55
2023/07/24 10:18:23;;;;;;;4.25;1.52;;;16.60;99.90;;;;;;4730153;30;20173;-54
2023/07/24 10:24:23;;;;;;;2.15;1.25;;;16.80;99.90;;;;;;4733186;30;20599;-57
2023/07/24 10:27:07;;;;;;;2.78;1.40;;;16.80;99.90;;;;;;4731709;30;20069;-58
2023/07/24 10:29:58;;;;;;;1.80;1.20;;;16.90;99.90;;;;;;4733041;30;20044;-63
2023/07/24 10:32:25;;;;;;;2.33;1.30;;;16.90;99.90;;;;;;4723992;29;20053;-60
2023/07/24 10:34:57;;;;;;;2.70;1.08;;;17.00;99.90;;;;;;4804246;29;20057;-60
2023/07/24 10:37:36;;;;;;;1.70;0.85;;;17.00;99.90;;;;;;4799832;29;20051;-63
2023/07/24 10:40:07;;;;;;;2.08;0.80;;;16.90;99.90;;;;;;4798453;29;20062;-57
2023/07/24 10:46:18;;;;;;;1.52;0.63;;;16.70;99.90;;;;;;4801589;29;20063;-58
2023/07/24 10:48:46;;;;;;;2.55;0.60;;;16.70;99.90;;;;;;4803894;29;20051;-58
2023/07/24 10:55:36;;;;;;;2.53;0.80;;;16.70;99.90;;;;;;4803867;29;20110;-59
2023/07/24 11:01:42;;;;;;;2.03;0.60;;;16.80;99.90;;;;;;4749969;30;20056;-62
2023/07/24 11:04:18;;;;;;;1.10;0.50;;;16.90;99.90;;;;;;4784949;29;20060;-63
2023/07/24 11:32:51;;;;;;;;;;;;;;;;;;;;;
2023/07/24 11:43:16;;;;;;;3.28;0.50;;;17.40;99.90;;;;;;4802565;29;20111;-57
2023/07/24 12:22:22;;;;;;;1.88;0.40;;;17.90;99.90;;;;;;4749426;30;20182;-61
2023/07/24 12:42:48;;;;;;;1.52;0.70;;;17.30;99.90;;;;;;4806479;29;20510;-62
2023/07/24 12:45:41;;;;;;;1.70;0.63;;;17.40;99.90;;;;;;4806860;29;20108;-60
2023/07/24 12:48:09;;;;;;;1.63;0.60;;;17.40;99.90;;;;;;4806229;29;20499;-62
2023/07/24 12:50:37;;;;;;;2.10;0.85;;;17.40;99.90;;;;;;4806514;29;20058;-64
2023/07/24 12:53:04;;;;;;;3.60;0.80;;;17.50;99.90;;;;;;4805879;29;20046;-60
2023/07/24 12:55:43;;;;;;;1.73;0.70;;;17.60;99.90;;;;;;4806550;29;20051;-58
2023/07/24 13:23:35;;;;;;;2.35;0.90;;;17.10;99.90;;;;;;4805543;29;20050;-60
2023/07/24 13:26:04;;;;;;;3.08;1.25;;;17.00;99.90;;;;;;4794855;29;20047;-61
2023/07/24 13:28:32;;;;;;;4.07;1.10;;;17.10;99.90;;;;;;4804761;29;20074;-60
2023/07/24 13:30:59;;;;;;;3.22;1.10;;;17.20;99.90;;;;;;4791664;29;20132;-61
2023/07/24 13:33:28;;;;;;;1.75;0.90;;;17.20;99.90;;;;;;4787270;29;20051;-62
2023/07/24 13:37:00;;;;;;;;;;;;;;;;;;;;;
2023/07/24 13:40:19;;;;;;;2.08;0.80;;;17.30;99.90;;;;;;4805144;29;20046;-57
2023/07/24 13:47:03;;;;;;;4.25;0.80;;;17.70;99.90;;;;;;4804318;29;20046;-63
2023/07/24 13:49:39;;;;;;;3.33;1.05;;;17.90;99.90;;;;;;4804842;29;20546;-58
2023/07/24 14:03:29;;;;;;;3.63;1.02;;;17.20;99.90;;;;;;4751617;30;20039;-61
2023/07/24 14:06:42;;;;;;;2.45;0.73;;;17.00;99.90;;;;;;4748348;30;20163;-59
2023/07/24 14:13:15;;;;;;;4.53;1.20;;;17.20;99.90;;;;;;4769353;30;20082;-60
2023/07/24 14:16:07;;;;;;;3.38;1.10;;;17.50;99.90;;;;;;4763729;30;20130;-61
2023/07/24 14:18:36;;;;;;;3.30;1.20;;;17.70;99.90;;;;;;4769192;30;20177;-63
2023/07/24 14:46:19;;;;;;;3.53;1.10;;;18.60;99.90;;;;;;4804680;29;20173;-58
2023/07/24 15:32:29;;;;;;;5.82;1.60;;;18.60;99.90;;;;;;4765770;29;20051;-58
2023/07/24 15:43:38;;;;;;;3.92;1.75;;;18.90;99.90;;;;;;4711248;30;20064;-61
2023/07/24 15:50:12;;;;;;;;;;;;;;;;;;;;;
2023/07/24 15:53:22;;;;;;;5.03;1.40;;;19.00;99.90;;;;;;4696561;30;20624;-64
2023/07/24 16:14:16;;;;;;;4.50;1.70;;;19.30;99.90;;;;;;4643545;30;20058;-58
2023/07/24 16:17:12;;;;;;;5.55;1.83;;;19.30;99.70;;;;;;4636123;30;20516;-57
2023/07/24 16:27:33;;;;;;;5.40;1.70;;;19.10;99.70;;;;;;4716428;30;20057;-57
2023/07/24 16:45:02;;;;;;;4.43;1.60;;;18.40;99.90;;;;;;4648445;30;20058;-60
2023/07/24 17:05:34;;;;;;;2.33;1.27;;;17.50;99.90;;;;;;4731269;30;20546;-54
2023/07/24 17:08:01;;;;;;;3.70;1.48;;;17.50;99.90;;;;;;4719287;30;20061;-60
2023/07/24 17:10:45;;;;;;;4.60;1.50;;;17.60;99.90;;;;;;4746657;30;20064;-62
2023/07/24 17:13:19;;;;;;;4.68;1.58;;;17.60;99.90;;;;;;4770115;30;20059;-60
2023/07/24 17:16:22;;;;;;;3.60;1.50;;;17.60;99.90;;;;;;4803376;29;20066;-60
2023/07/24 17:26:09;;;;;;;4.00;1.80;;;17.60;99.90;;;;;;4789715;29;20043;-59
2023/07/24 17:28:42;;;;;;;4.07;1.90;;;17.60;99.90;;;;;;4805559;29;20055;-62
2023/07/24 17:31:51;;;;;;;5.55;1.63;;;17.70;99.90;;;;;;4724970;29;20111;-61
2023/07/24 17:34:19;;;;;;;4.93;1.52;;;17.80;99.90;;;;;;4805332;29;20466;-61
2023/07/24 17:40:19;;;;;;;3.67;1.65;;;17.90;99.90;;;;;;4770030;30;20036;-62
2023/07/24 17:42:46;;;;;;;4.57;1.65;;;18.00;99.90;;;;;;4787198;29;20051;-60
2023/07/24 17:45:20;;;;;;;5.10;1.92;;;18.10;99.90;;;;;;4805587;29;20072;-60
2023/07/24 17:48:12;;;;;;;5.25;1.63;;;18.10;99.90;;;;;;4802158;29;20066;-62
2023/07/24 17:50:42;;;;;;;6.60;1.70;;;18.00;99.90;;;;;;4805604;29;20088;-62
2023/07/24 17:53:20;;;;;;;7.30;1.80;;;18.10;99.90;;;;;;4804678;29;20070;-61
2023/07/24 17:59:07;;;;;;;6.65;1.75;;;18.10;99.90;;;;;;4804537;29;20050;-62
2023/07/24 18:01:35;;;;;;;4.82;1.67;;;18.10;99.90;;;;;;4808721;29;20042;-60
2023/07/24 18:04:03;;;;;;;3.75;1.63;;;18.00;99.90;;;;;;4804490;29;20074;-59
2023/07/24 18:06:34;;;;;;;6.32;1.75;;;18.00;99.90;;;;;;4789922;29;20055;-61
2023/07/24 18:09:05;;;;;;;5.32;1.98;;;17.90;99.90;;;;;;4789710;29;20489;-56
2023/07/24 18:12:10;;;;;;;4.80;1.60;;;17.90;99.90;;;;;;4786930;29;20427;-57
2023/07/24 18:14:37;;;;;;;7.22;2.10;;;17.90;99.90;;;;;;4801992;29;20097;-61
2023/07/24 18:17:05;;;;;;;6.53;1.70;;;17.80;99.90;;;;;;4804550;29;20057;-61
2023/07/24 18:19:32;;;;;;;7.15;2.00;;;17.80;99.90;;;;;;4805015;29;20089;-61
2023/07/24 18:22:00;;;;;;;4.32;1.65;;;17.70;99.90;;;;;;4805057;29;20047;-60
2023/07/24 18:24:27;;;;;;;5.75;2.00;;;17.70;99.90;;;;;;4790427;29;20055;-61
2023/07/24 18:26:57;;;;;;;5.32;2.08;;;17.70;99.90;;;;;;4787224;29;20079;-59
2023/07/24 18:29:26;;;;;;;7.85;2.28;;;17.70;99.90;;;;;;4793859;29;20054;-60
2023/07/24 18:43:30;;;;;;;6.05;2.75;;;17.40;99.90;;;;;;4733038;30;20070;-59
2023/07/24 18:46:07;;;;;;;;;;;17.30;99.90;;;;;;4751010;30;20102;-58
2023/07/24 18:59:35;;;;;;;7.72;2.90;;;16.90;99.90;;;;;;4750168;30;20489;-58
2023/07/24 19:02:03;;;;;;;7.63;2.90;;;16.90;99.90;;;;;;4757059;29;20060;-56
2023/07/24 19:11:43;;;;;;;5.93;2.53;;;17.00;99.90;;;;;;4789776;29;20075;-60
2023/07/24 19:17:23;;;;;;;7.40;3.28;;;17.00;99.90;;;;;;4804638;29;20058;-56
2023/07/24 19:19:50;;;;;;;7.82;2.80;;;17.00;99.90;;;;;;4803637;29;20111;-55
2023/07/24 19:22:17;;;;;;;7.50;2.75;;;17.00;99.90;;;;;;4804434;29;20081;-56
2023/07/24 19:24:44;;;;;;;6.03;2.70;;;17.00;99.90;;;;;;4804510;29;20087;-56
2023/07/24 19:27:15;;;;;;;6.55;2.83;;;17.00;99.90;;;;;;4803589;29;20054;-61
2023/07/24 19:29:42;;;;;;;8.98;2.95;;;17.00;99.90;;;;;;4804290;29;20097;-62
2023/07/24 19:32:40;;;;;;;8.23;2.50;;;17.00;99.90;;;;;;4807483;29;20050;-55
2023/07/24 19:35:21;;;;;;;6.03;2.70;;;17.00;99.90;;;;;;4807900;29;20411;-61
2023/07/24 19:37:59;;;;;;;7.60;2.97;;;17.10;99.90;;;;;;4807141;29;20438;-59
2023/07/24 19:40:26;;;;;;;7.88;2.72;;;17.20;99.90;;;;;;4791009;29;20043;-55
2023/07/24 19:42:53;;;;;;;7.65;2.97;;;17.20;99.90;;;;;;4790368;29;20168;-58
2023/07/24 19:48:35;;;;;;;21.98;11.88;;;17.10;99.90;;;;;;4797145;29;20049;-59
2023/07/24 19:51:03;;;;;;;12.63;7.00;;;17.10;99.90;;;;;;4807648;29;20163;-58
2023/07/24 19:53:50;;;;;;;12.20;5.88;;;17.20;99.90;;;;;;4804463;29;20101;-58
2023/07/24 19:56:20;;;;;;;12.30;4.85;;;17.20;99.90;;;;;;4807857;29;20047;-56
2023/07/24 19:58:47;;;;;;;8.63;4.18;;;17.20;99.90;;;;;;4807022;29;20051;-55
2023/07/24 20:01:14;;;;;;;10.45;4.57;;;17.10;99.90;;;;;;4807454;29;20050;-58
2023/07/24 20:03:43;;;;;;;10.88;4.13;;;17.00;99.90;;;;;;4806960;29;20119;-61
2023/07/24 20:06:10;;;;;;;9.27;4.30;;;16.90;99.90;;;;;;4807519;29;20063;-55
2023/07/24 20:08:37;;;;;;;8.73;3.97;;;16.80;99.90;;;;;;4806714;29;20138;-61
2023/07/24 20:11:07;;;;;;;8.63;4.05;;;16.70;99.90;;;;;;4794695;29;20153;-59
2023/07/24 20:13:35;;;;;;;7.72;3.67;;;16.70;99.90;;;;;;4789611;29;20065;-58
2023/07/24 20:16:02;;;;;;;9.27;3.80;;;16.70;99.90;;;;;;4805031;29;20055;-55
2023/07/24 20:18:45;;;;;;;8.52;3.38;;;16.70;99.90;;;;;;4807133;29;20130;-60
2023/07/24 20:21:12;;;;;;;8.75;3.53;;;16.70;99.90;;;;;;4807115;29;20065;-62
2023/07/24 20:23:41;;;;;;;7.43;3.50;;;16.70;99.90;;;;;;4798047;29;20146;-58
2023/07/24 20:26:50;;;;;;;7.10;3.88;;;16.70;99.90;;;;;;4803295;29;20562;-57
2023/07/24 20:29:17;;;;;;;6.95;3.47;;;16.70;99.90;;;;;;4806329;29;20492;-57
2023/07/24 20:32:09;;;;;;;7.20;3.45;;;16.70;99.90;;;;;;4807063;29;20053;-56
2023/07/24 20:34:39;;;;;;;8.70;3.63;;;16.70;99.90;;;;;;4806067;29;20051;-59
2023/07/24 20:37:06;;;;;;;9.65;3.97;;;16.70;99.90;;;;;;4807149;29;20058;-58
2023/07/24 20:39:34;;;;;;;9.20;3.38;;;16.60;99.90;;;;;;4805971;29;20051;-60
2023/07/24 20:45:29;;;;;;;12.85;2.90;;;16.50;99.90;;;;;;4807159;29;20070;-56
2023/07/24 20:47:57;;;;;;;8.80;3.28;;;16.50;99.90;;;;;;4806487;29;20059;-60
2023/07/24 20:50:24;;;;;;;10.63;2.88;;;16.50;99.90;;;;;;4806497;29;20129;-62
2023/07/24 20:52:52;;;;;;;9.35;2.60;;;16.40;99.90;;;;;;4801660;29;20043;-57
2023/07/24 20:55:22;;;;;;;7.18;2.53;;;16.40;99.90;;;;;;4806437;29;20055;-56
2023/07/24 20:57:48;;;;;;;8.75;2.72;;;16.30;99.90;;;;;;4806591;29;20050;-60
2023/07/24 21:00:18;;;;;;;9.18;2.38;;;16.30;99.90;;;;;;4806375;29;20405;-59
2023/07/24 21:02:45;;;;;;;8.55;2.40;;;16.20;99.90;;;;;;4800659;29;20134;-61
2023/07/24 21:05:12;;;;;;;7.68;2.42;;;16.20;99.90;;;;;;4810002;29;20547;-54
2023/07/24 21:07:39;;;;;;;8.00;2.20;;;16.10;99.90;;;;;;4811701;29;20097;-55
2023/07/24 21:10:06;;;;;;;7.47;2.45;;;16.10;99.90;;;;;;4809064;29;20143;-57
2023/07/24 21:12:33;;;;;;;5.72;2.17;;;16.10;99.90;;;;;;4808632;29;20063;-56
2023/07/24 21:15:00;;;;;;;8.27;2.10;;;16.10;99.90;;;;;;4808791;29;20582;-57
2023/07/24 21:17:27;;;;;;;7.40;2.33;;;16.10;99.90;;;;;;4810417;29;20440;-54
2023/07/24 21:19:54;;;;;;;10.93;2.50;;;16.10;99.90;;;;;;4809177;29;20039;-50
2023/07/24 21:22:20;;;;;;;6.00;2.10;;;16.10;99.90;;;;;;4807163;29;20054;-56
2023/07/24 21:24:47;;;;;;;8.48;2.35;;;16.10;99.90;;;;;;4807217;29;20050;-53
2023/07/24 21:27:14;;;;;;;5.28;2.33;;;16.20;99.90;;;;;;4807237;29;20057;-53
2023/07/24 21:29:41;;;;;;;5.45;2.58;;;16.20;99.90;;;;;;4791985;29;20563;-53
2023/07/24 21:32:08;;;;;;;7.70;2.20;;;16.10;99.90;;;;;;4792613;29;20062;-55
2023/07/24 21:34:34;;;;;;;6.28;2.13;;;16.10;99.90;;;;;;4807213;29;20547;-57
2023/07/24 21:37:01;;;;;;;5.70;2.40;;;16.10;99.90;;;;;;4807086;29;20051;-52
2023/07/24 21:39:28;;;;;;;7.15;2.17;;;16.10;99.90;;;;;;4806733;29;20115;-53
2023/07/24 21:41:55;;;;;;;9.23;2.63;;;16.10;99.90;;;;;;4806815;29;20133;-56
2023/07/24 21:44:22;;;;;;;6.45;2.10;;;16.10;99.90;;;;;;4806631;29;20467;-55
2023/07/24 21:46:48;;;;;;;6.53;2.00;;;16.10;99.90;;;;;;4806538;29;20046;-52
2023/07/24 21:49:15;;;;;;;6.50;2.33;;;16.10;99.90;;;;;;4805986;29;20089;-49
2023/07/24 21:51:42;;;;;;;6.10;2.10;;;16.00;99.90;;;;;;4805851;29;20052;-52
2023/07/24 21:54:09;;;;;;;5.80;2.22;;;16.00;99.90;;;;;;4790614;29;20055;-55
2023/07/24 21:56:36;;;;;;;6.25;2.10;;;15.90;99.90;;;;;;4806222;29;20046;-56
2023/07/24 21:59:03;;;;;;;5.93;1.92;;;15.90;99.90;;;;;;4790972;29;20617;-55
2023/07/24 22:01:30;;;;;;;8.25;2.45;;;15.90;99.90;;;;;;4805752;29;20053;-55
2023/07/24 22:03:57;;;;;;;7.30;2.67;;;15.90;99.90;;;;;;4806319;29;20494;-57
2023/07/24 22:06:24;;;;;;;6.82;2.25;;;15.90;99.90;;;;;;4805899;29;20124;-56
2023/07/24 22:08:51;;;;;;;7.60;2.30;;;15.90;99.90;;;;;;4805983;29;20070;-54
2023/07/24 22:11:17;;;;;;;7.32;2.03;;;15.80;99.90;;;;;;4806031;29;20058;-54
2023/07/24 22:13:45;;;;;;;10.23;1.85;;;15.80;99.90;;;;;;4806050;29;20058;-54
2023/07/24 22:16:12;;;;;;;6.57;2.20;;;15.80;99.90;;;;;;4790560;29;20055;-55
2023/07/24 22:18:39;;;;;;;6.35;2.10;;;15.70;99.90;;;;;;4790782;29;20484;-53
2023/07/24 22:21:06;;;;;;;9.05;3.17;;;15.70;99.90;;;;;;4805952;29;20078;-56
2023/07/24 22:23:33;;;;;;;5.05;2.40;;;15.70;99.90;;;;;;4805229;29;20057;-51
2023/07/24 22:25:59;;;;;;;9.52;2.25;;;15.70;99.90;;;;;;4805300;29;20082;-54
2023/07/24 22:28:26;;;;;;;7.47;2.05;;;15.70;99.90;;;;;;4790874;29;20065;-49
2023/07/24 22:30:53;;;;;;;6.55;2.50;;;15.60;99.90;;;;;;4790028;29;20467;-52
2023/07/24 22:33:20;;;;;;;9.07;2.30;;;15.60;99.90;;;;;;4805146;29;20518;-56
2023/07/24 22:35:47;;;;;;;9.18;2.20;;;15.50;99.90;;;;;;4805043;29;20051;-57
2023/07/24 22:38:14;;;;;;;8.57;2.35;;;15.50;99.90;;;;;;4805101;29;20051;-58
2023/07/24 22:40:40;;;;;;;7.22;2.20;;;15.50;99.90;;;;;;4805526;29;20062;-57
2023/07/24 22:43:07;;;;;;;6.57;2.35;;;15.50;99.90;;;;;;4804984;29;20051;-62
2023/07/24 22:45:34;;;;;;;7.57;2.17;;;15.50;99.90;;;;;;4804907;29;20511;-57
2023/07/24 22:48:03;;;;;;;11.38;2.60;;;15.40;99.90;;;;;;4789886;29;20054;-60
2023/07/24 22:50:30;;;;;;;10.85;2.67;;;15.40;99.90;;;;;;4804792;29;20050;-55
2023/07/24 22:53:11;;;;;;;9.70;2.55;;;15.40;99.90;;;;;;4805286;29;20135;-57
2023/07/24 22:58:56;;;;;;;6.38;2.20;;;15.20;99.90;;;;;;4803997;29;20127;-54
2023/07/24 23:01:35;;;;;;;6.78;2.28;;;15.20;99.90;;;;;;4805345;29;20126;-57
2023/07/24 23:04:02;;;;;;;7.95;2.22;;;15.10;99.90;;;;;;4804731;29;20717;-57
2023/07/24 23:06:50;;;;;;;9.80;2.10;;;15.10;99.90;;;;;;4802291;29;20059;-59
2023/07/24 23:09:17;;;;;;;8.68;2.30;;;15.10;99.90;;;;;;4804717;29;20055;-56
2023/07/24 23:11:45;;;;;;;5.63;2.10;;;15.10;99.90;;;;;;4804466;29;20067;-55
2023/07/24 23:14:13;;;;;;;9.30;2.47;;;15.10;99.90;;;;;;4804786;29;20495;-54
2023/07/24 23:16:40;;;;;;;7.63;2.33;;;15.10;99.90;;;;;;4804600;29;20106;-58
2023/07/24 23:22:35;;;;;;;5.97;1.92;;;15.10;99.90;;;;;;4805292;29;20086;-57
2023/07/24 23:25:06;;;;;;;8.77;2.20;;;15.10;99.90;;;;;;4804576;29;20050;-52
2023/07/24 23:27:33;;;;;;;9.38;2.50;;;15.00;99.90;;;;;;4804931;29;20076;-53
2023/07/24 23:30:03;;;;;;;8.60;2.42;;;15.00;99.90;;;;;;4789581;29;20089;-55
2023/07/24 23:32:34;;;;;;;7.20;2.58;;;14.90;99.90;;;;;;4804481;29;20128;-57
2023/07/24 23:35:01;;;;;;;12.43;2.55;;;14.90;99.90;;;;;;4804905;29;20066;-58
2023/07/24 23:37:28;;;;;;;6.15;2.20;;;14.90;99.90;;;;;;4804383;29;20582;-55
2023/07/24 23:39:55;;;;;;;6.60;2.47;;;14.90;99.90;;;;;;4804512;29;20054;-55
2023/07/24 23:53:19;;;;;;;6.65;2.75;;;14.60;99.90;;;;;;4804229;29;20084;-57
2023/07/24 23:56:14;;;;;;;7.53;2.08;;;14.60;99.90;;;;;;4783640;29;20074;-52
